sensor_id;sensor_type;location;lat;lon;timestamp;temperature;humidity
728;DHT22;347;48.780;9.158;2023-04-06T00:01:33;8.60;12.70
728;DHT22;347;48.780;9.158;2023-04-06T00:03:59;8.60;12.70
728;DHT22;347;48.780;9.158;2023-04-06T00:06:25;8.60;12.50
728;DHT22;347;48.780;9.158;2023-04-06T00:08:52;8.70;12.40
728;DHT22;347;48.780;9.158;2023-04-06T00:11:17;8.80;12.30
728;DHT22;347;48.780;9.158;2023-04-06T00:13:43;8.80;12.20
728;DHT22;347;48.780;9.158;2023-04-06T00:16:09;8.90;12.10
728;DHT22;347;48.780;9.158;2023-04-06T00:18:34;8.90;12.10
728;DHT22;347;48.780;9.158;2023-04-06T00:21:00;8.80;12.20
728;DHT22;347;48.780;9.158;2023-04-06T00:23:26;8.20;13.50
728;DHT22;347;48.780;9.158;2023-04-06T00:25:51;7.70;14.50
728;DHT22;347;48.780;9.158;2023-04-06T00:28:17;7.30;15.50
728;DHT22;347;48.780;9.158;2023-04-06T00:30:45;7.20;15.80
728;DHT22;347;48.780;9.158;2023-04-06T00:33:11;7.50;15.00
728;DHT22;347;48.780;9.158;2023-04-06T00:35:36;7.70;14.20
728;DHT22;347;48.780;9.158;2023-04-06T00:38:02;7.80;14.30
728;DHT22;347;48.780;9.158;2023-04-06T00:40:28;7.80;14.20
728;DHT22;347;48.780;9.158;2023-04-06T00:42:54;8.00;14.40
728;DHT22;347;48.780;9.158;2023-04-06T00:45:20;8.10;13.90
728;DHT22;347;48.780;9.158;2023-04-06T00:47:45;8.20;14.00
728;DHT22;347;48.780;9.158;2023-04-06T00:50:11;8.20;13.90
728;DHT22;347;48.780;9.158;2023-04-06T00:52:37;8.30;13.70
728;DHT22;347;48.780;9.158;2023-04-06T00:55:03;8.40;13.70
728;DHT22;347;48.780;9.158;2023-04-06T00:57:29;8.40;13.40
728;DHT22;347;48.780;9.158;2023-04-06T00:59:56;8.50;13.40
728;DHT22;347;48.780;9.158;2023-04-06T01:02:21;8.50;13.30
728;DHT22;347;48.780;9.158;2023-04-06T01:04:48;8.60;13.10
728;DHT22;347;48.780;9.158;2023-04-06T01:07:14;8.50;13.10
728;DHT22;347;48.780;9.158;2023-04-06T01:09:39;8.60;13.10
728;DHT22;347;48.780;9.158;2023-04-06T01:12:07;8.60;13.20
728;DHT22;347;48.780;9.158;2023-04-06T01:14:32;8.60;13.20
728;DHT22;347;48.780;9.158;2023-04-06T01:16:59;8.60;12.90
728;DHT22;347;48.780;9.158;2023-04-06T01:19:25;8.60;12.70
728;DHT22;347;48.780;9.158;2023-04-06T01:21:51;8.60;13.10
728;DHT22;347;48.780;9.158;2023-04-06T01:24:18;8.50;13.10
728;DHT22;347;48.780;9.158;2023-04-06T01:26:45;8.50;13.20
728;DHT22;347;48.780;9.158;2023-04-06T01:29:11;8.50;13.30
728;DHT22;347;48.780;9.158;2023-04-06T01:31:37;8.50;13.20
728;DHT22;347;48.780;9.158;2023-04-06T01:34:03;8.50;13.20
728;DHT22;347;48.780;9.158;2023-04-06T01:36:28;8.50;13.10
728;DHT22;347;48.780;9.158;2023-04-06T01:38:54;8.50;13.10
728;DHT22;347;48.780;9.158;2023-04-06T01:41:19;8.50;13.10
728;DHT22;347;48.780;9.158;2023-04-06T01:43:47;8.50;13.00
728;DHT22;347;48.780;9.158;2023-04-06T01:46:13;8.40;13.10
728;DHT22;347;48.780;9.158;2023-04-06T01:48:38;8.30;13.00
728;DHT22;347;48.780;9.158;2023-04-06T01:51:04;8.30;13.10
728;DHT22;347;48.780;9.158;2023-04-06T01:53:30;8.30;13.00
728;DHT22;347;48.780;9.158;2023-04-06T01:55:55;8.30;13.10
728;DHT22;347;48.780;9.158;2023-04-06T01:58:21;8.30;13.70
728;DHT22;347;48.780;9.158;2023-04-06T02:00:46;8.20;13.90
728;DHT22;347;48.780;9.158;2023-04-06T02:03:12;8.20;13.90
728;DHT22;347;48.780;9.158;2023-04-06T02:05:39;8.20;14.20
728;DHT22;347;48.780;9.158;2023-04-06T02:08:06;8.20;14.20
728;DHT22;347;48.780;9.158;2023-04-06T02:10:32;8.20;14.40
728;DHT22;347;48.780;9.158;2023-04-06T02:12:58;8.20;14.50
728;DHT22;347;48.780;9.158;2023-04-06T02:15:24;8.20;14.50
728;DHT22;347;48.780;9.158;2023-04-06T02:17:51;8.20;14.50
728;DHT22;347;48.780;9.158;2023-04-06T02:20:54;8.20;14.50
728;DHT22;347;48.780;9.158;2023-04-06T02:23:19;8.10;14.50
728;DHT22;347;48.780;9.158;2023-04-06T02:25:45;8.10;14.40
728;DHT22;347;48.780;9.158;2023-04-06T02:28:11;8.10;14.40
728;DHT22;347;48.780;9.158;2023-04-06T02:30:36;8.10;14.20
728;DHT22;347;48.780;9.158;2023-04-06T02:33:02;8.10;14.40
728;DHT22;347;48.780;9.158;2023-04-06T02:35:29;8.10;14.30
728;DHT22;347;48.780;9.158;2023-04-06T02:37:55;8.10;14.40
728;DHT22;347;48.780;9.158;2023-04-06T02:40:21;8.10;14.50
728;DHT22;347;48.780;9.158;2023-04-06T02:42:46;8.00;14.40
728;DHT22;347;48.780;9.158;2023-04-06T02:45:12;8.00;14.40
728;DHT22;347;48.780;9.158;2023-04-06T02:47:37;7.90;14.30
728;DHT22;347;48.780;9.158;2023-04-06T02:50:03;7.90;14.30
728;DHT22;347;48.780;9.158;2023-04-06T02:52:29;7.90;14.30
728;DHT22;347;48.780;9.158;2023-04-06T02:54:55;7.90;14.30
728;DHT22;347;48.780;9.158;2023-04-06T02:57:21;7.80;14.30
728;DHT22;347;48.780;9.158;2023-04-06T02:59:46;7.90;13.90
728;DHT22;347;48.780;9.158;2023-04-06T03:02:12;7.90;14.00
728;DHT22;347;48.780;9.158;2023-04-06T03:04:37;7.90;14.30
728;DHT22;347;48.780;9.158;2023-04-06T03:07:03;7.90;14.30
728;DHT22;347;48.780;9.158;2023-04-06T03:09:29;7.80;14.20
728;DHT22;347;48.780;9.158;2023-04-06T03:11:54;7.80;14.30
728;DHT22;347;48.780;9.158;2023-04-06T03:14:20;7.80;14.30
728;DHT22;347;48.780;9.158;2023-04-06T03:16:47;7.70;14.20
728;DHT22;347;48.780;9.158;2023-04-06T03:19:13;7.70;14.30
728;DHT22;347;48.780;9.158;2023-04-06T03:21:38;7.70;14.30
728;DHT22;347;48.780;9.158;2023-04-06T03:24:05;7.70;14.30
728;DHT22;347;48.780;9.158;2023-04-06T03:26:31;7.80;14.60
728;DHT22;347;48.780;9.158;2023-04-06T03:28:56;7.80;14.20
728;DHT22;347;48.780;9.158;2023-04-06T03:31:22;7.80;14.20
728;DHT22;347;48.780;9.158;2023-04-06T03:33:47;7.80;14.30
728;DHT22;347;48.780;9.158;2023-04-06T03:36:13;7.80;14.40
728;DHT22;347;48.780;9.158;2023-04-06T03:38:39;7.90;14.40
728;DHT22;347;48.780;9.158;2023-04-06T03:41:04;7.90;14.30
728;DHT22;347;48.780;9.158;2023-04-06T03:43:30;8.00;14.40
728;DHT22;347;48.780;9.158;2023-04-06T03:45:55;8.10;14.50
728;DHT22;347;48.780;9.158;2023-04-06T03:48:21;8.20;14.50
728;DHT22;347;48.780;9.158;2023-04-06T03:50:47;8.20;14.50
728;DHT22;347;48.780;9.158;2023-04-06T03:53:12;8.30;14.00
728;DHT22;347;48.780;9.158;2023-04-06T03:55:38;8.30;13.90
728;DHT22;347;48.780;9.158;2023-04-06T03:58:04;8.30;13.70
728;DHT22;347;48.780;9.158;2023-04-06T04:00:29;8.40;13.60
728;DHT22;347;48.780;9.158;2023-04-06T04:02:55;8.40;13.90
728;DHT22;347;48.780;9.158;2023-04-06T04:05:21;8.30;14.10
728;DHT22;347;48.780;9.158;2023-04-06T04:07:51;8.30;14.00
728;DHT22;347;48.780;9.158;2023-04-06T04:10:17;8.30;14.30
728;DHT22;347;48.780;9.158;2023-04-06T04:12:42;8.30;14.30
728;DHT22;347;48.780;9.158;2023-04-06T04:15:08;8.20;14.50
728;DHT22;347;48.780;9.158;2023-04-06T04:17:34;8.20;14.50
728;DHT22;347;48.780;9.158;2023-04-06T04:19:59;8.20;14.50
728;DHT22;347;48.780;9.158;2023-04-06T04:22:25;8.20;14.50
728;DHT22;347;48.780;9.158;2023-04-06T04:24:53;8.20;14.50
728;DHT22;347;48.780;9.158;2023-04-06T04:27:18;8.10;14.50
728;DHT22;347;48.780;9.158;2023-04-06T04:29:44;8.00;14.40
728;DHT22;347;48.780;9.158;2023-04-06T04:32:10;8.00;14.40
728;DHT22;347;48.780;9.158;2023-04-06T04:34:35;8.00;14.40
728;DHT22;347;48.780;9.158;2023-04-06T04:37:01;8.00;14.40
728;DHT22;347;48.780;9.158;2023-04-06T04:39:27;8.00;15.60
728;DHT22;347;48.780;9.158;2023-04-06T04:41:52;8.00;14.90
728;DHT22;347;48.780;9.158;2023-04-06T04:44:19;7.90;14.30
728;DHT22;347;48.780;9.158;2023-04-06T04:46:45;7.80;16.80
728;DHT22;347;48.780;9.158;2023-04-06T04:49:13;7.90;17.30
728;DHT22;347;48.780;9.158;2023-04-06T04:51:39;7.90;15.30
728;DHT22;347;48.780;9.158;2023-04-06T04:54:05;7.90;14.90
728;DHT22;347;48.780;9.158;2023-04-06T04:56:31;7.80;14.70
728;DHT22;347;48.780;9.158;2023-04-06T04:58:56;7.80;14.60
728;DHT22;347;48.780;9.158;2023-04-06T05:01:22;7.90;14.90
728;DHT22;347;48.780;9.158;2023-04-06T05:03:48;7.90;14.30
728;DHT22;347;48.780;9.158;2023-04-06T05:06:13;7.90;14.50
728;DHT22;347;48.780;9.158;2023-04-06T05:08:39;7.80;14.60
728;DHT22;347;48.780;9.158;2023-04-06T05:11:04;7.80;14.90
728;DHT22;347;48.780;9.158;2023-04-06T05:13:30;7.90;14.60
728;DHT22;347;48.780;9.158;2023-04-06T05:15:56;7.90;15.20
728;DHT22;347;48.780;9.158;2023-04-06T05:18:22;7.90;14.80
728;DHT22;347;48.780;9.158;2023-04-06T05:20:48;7.90;14.80
728;DHT22;347;48.780;9.158;2023-04-06T05:23:13;7.90;15.00
728;DHT22;347;48.780;9.158;2023-04-06T05:25:40;7.80;15.10
728;DHT22;347;48.780;9.158;2023-04-06T05:28:06;7.80;15.20
728;DHT22;347;48.780;9.158;2023-04-06T05:30:31;7.80;15.10
728;DHT22;347;48.780;9.158;2023-04-06T05:32:57;7.80;15.30
728;DHT22;347;48.780;9.158;2023-04-06T05:35:23;7.80;15.50
728;DHT22;347;48.780;9.158;2023-04-06T05:37:49;7.80;15.30
728;DHT22;347;48.780;9.158;2023-04-06T05:40:15;7.70;15.20
728;DHT22;347;48.780;9.158;2023-04-06T05:42:41;7.70;15.40
728;DHT22;347;48.780;9.158;2023-04-06T05:45:11;7.80;15.40
728;DHT22;347;48.780;9.158;2023-04-06T05:47:42;7.80;15.20
728;DHT22;347;48.780;9.158;2023-04-06T05:50:09;7.80;15.30
728;DHT22;347;48.780;9.158;2023-04-06T05:52:35;7.70;15.40
728;DHT22;347;48.780;9.158;2023-04-06T05:55:01;7.70;15.40
728;DHT22;347;48.780;9.158;2023-04-06T05:57:26;7.80;15.30
728;DHT22;347;48.780;9.158;2023-04-06T05:59:52;7.50;15.20
728;DHT22;347;48.780;9.158;2023-04-06T06:02:17;7.40;16.00
728;DHT22;347;48.780;9.158;2023-04-06T06:04:43;7.40;16.00
728;DHT22;347;48.780;9.158;2023-04-06T06:07:09;7.50;15.70
728;DHT22;347;48.780;9.158;2023-04-06T06:09:34;7.60;15.70
728;DHT22;347;48.780;9.158;2023-04-06T06:12:00;7.60;15.50
728;DHT22;347;48.780;9.158;2023-04-06T06:14:26;7.70;15.70
728;DHT22;347;48.780;9.158;2023-04-06T06:16:54;7.70;15.70
728;DHT22;347;48.780;9.158;2023-04-06T06:19:19;7.70;15.60
728;DHT22;347;48.780;9.158;2023-04-06T06:21:45;7.60;15.60
728;DHT22;347;48.780;9.158;2023-04-06T06:24:11;7.30;16.50
728;DHT22;347;48.780;9.158;2023-04-06T06:26:36;7.00;17.20
728;DHT22;347;48.780;9.158;2023-04-06T06:29:03;6.90;17.60
728;DHT22;347;48.780;9.158;2023-04-06T06:31:30;6.90;17.50
728;DHT22;347;48.780;9.158;2023-04-06T06:33:56;7.00;17.70
728;DHT22;347;48.780;9.158;2023-04-06T06:36:22;7.00;17.50
728;DHT22;347;48.780;9.158;2023-04-06T06:38:47;7.00;17.60
728;DHT22;347;48.780;9.158;2023-04-06T06:41:13;6.80;18.90
728;DHT22;347;48.780;9.158;2023-04-06T06:43:38;6.70;18.40
728;DHT22;347;48.780;9.158;2023-04-06T06:46:05;6.60;19.40
728;DHT22;347;48.780;9.158;2023-04-06T06:48:31;6.90;19.90
728;DHT22;347;48.780;9.158;2023-04-06T06:50:57;7.10;19.10
728;DHT22;347;48.780;9.158;2023-04-06T06:53:24;7.40;18.20
728;DHT22;347;48.780;9.158;2023-04-06T06:55:49;7.60;17.10
728;DHT22;347;48.780;9.158;2023-04-06T06:58:17;7.80;16.50
728;DHT22;347;48.780;9.158;2023-04-06T07:00:43;8.00;16.00
728;DHT22;347;48.780;9.158;2023-04-06T07:03:09;8.10;15.40
728;DHT22;347;48.780;9.158;2023-04-06T07:05:34;8.10;16.00
728;DHT22;347;48.780;9.158;2023-04-06T07:08:00;8.20;15.50
728;DHT22;347;48.780;9.158;2023-04-06T07:10:26;8.30;15.00
728;DHT22;347;48.780;9.158;2023-04-06T07:12:52;8.10;14.80
728;DHT22;347;48.780;9.158;2023-04-06T07:15:17;7.90;15.50
728;DHT22;347;48.780;9.158;2023-04-06T07:17:43;7.70;16.00
728;DHT22;347;48.780;9.158;2023-04-06T07:20:11;7.80;16.20
728;DHT22;347;48.780;9.158;2023-04-06T07:22:38;8.00;15.90
728;DHT22;347;48.780;9.158;2023-04-06T07:25:04;7.90;15.60
728;DHT22;347;48.780;9.158;2023-04-06T07:27:30;7.80;16.10
728;DHT22;347;48.780;9.158;2023-04-06T07:29:56;7.80;16.00
728;DHT22;347;48.780;9.158;2023-04-06T07:32:21;7.90;16.20
728;DHT22;347;48.780;9.158;2023-04-06T07:34:47;7.80;15.70
728;DHT22;347;48.780;9.158;2023-04-06T07:37:12;7.90;16.50
728;DHT22;347;48.780;9.158;2023-04-06T07:39:38;8.00;15.80
728;DHT22;347;48.780;9.158;2023-04-06T07:42:04;8.20;15.70
728;DHT22;347;48.780;9.158;2023-04-06T07:44:29;8.30;15.40
728;DHT22;347;48.780;9.158;2023-04-06T07:46:56;8.40;14.70
728;DHT22;347;48.780;9.158;2023-04-06T07:49:21;8.40;14.60
728;DHT22;347;48.780;9.158;2023-04-06T07:51:48;8.60;14.70
728;DHT22;347;48.780;9.158;2023-04-06T07:54:13;8.80;14.10
728;DHT22;347;48.780;9.158;2023-04-06T07:56:39;8.70;14.70
728;DHT22;347;48.780;9.158;2023-04-06T07:59:05;8.60;14.70
728;DHT22;347;48.780;9.158;2023-04-06T08:01:30;8.70;14.20
728;DHT22;347;48.780;9.158;2023-04-06T08:03:57;8.70;14.40
728;DHT22;347;48.780;9.158;2023-04-06T08:06:23;8.90;14.60
728;DHT22;347;48.780;9.158;2023-04-06T08:08:48;9.00;14.50
728;DHT22;347;48.780;9.158;2023-04-06T08:11:14;9.10;14.10
728;DHT22;347;48.780;9.158;2023-04-06T08:13:39;9.10;14.50
728;DHT22;347;48.780;9.158;2023-04-06T08:16:05;9.30;14.30
728;DHT22;347;48.780;9.158;2023-04-06T08:18:31;9.20;13.70
728;DHT22;347;48.780;9.158;2023-04-06T08:20:57;9.30;13.70
728;DHT22;347;48.780;9.158;2023-04-06T08:23:23;9.20;14.10
728;DHT22;347;48.780;9.158;2023-04-06T08:25:48;9.30;14.30
728;DHT22;347;48.780;9.158;2023-04-06T08:28:14;9.40;13.70
728;DHT22;347;48.780;9.158;2023-04-06T08:30:41;9.50;13.70
728;DHT22;347;48.780;9.158;2023-04-06T08:33:07;9.50;13.90
728;DHT22;347;48.780;9.158;2023-04-06T08:35:32;9.50;13.30
728;DHT22;347;48.780;9.158;2023-04-06T08:37:58;9.40;12.90
728;DHT22;347;48.780;9.158;2023-04-06T08:40:24;9.40;13.50
728;DHT22;347;48.780;9.158;2023-04-06T08:42:53;9.40;13.60
728;DHT22;347;48.780;9.158;2023-04-06T08:45:19;9.60;13.20
728;DHT22;347;48.780;9.158;2023-04-06T08:50:50;9.70;13.20
728;DHT22;347;48.780;9.158;2023-04-06T08:53:16;9.90;13.40
728;DHT22;347;48.780;9.158;2023-04-06T08:55:43;10.00;11.90
728;DHT22;347;48.780;9.158;2023-04-06T08:58:09;10.10;11.50
728;DHT22;347;48.780;9.158;2023-04-06T09:00:38;10.20;11.90
728;DHT22;347;48.780;9.158;2023-04-06T09:03:05;10.20;11.70
728;DHT22;347;48.780;9.158;2023-04-06T09:05:32;10.30;11.40
728;DHT22;347;48.780;9.158;2023-04-06T09:07:57;10.50;10.50
728;DHT22;347;48.780;9.158;2023-04-06T09:10:23;10.60;9.30
728;DHT22;347;48.780;9.158;2023-04-06T09:12:50;10.80;8.40
728;DHT22;347;48.780;9.158;2023-04-06T09:15:21;10.90;9.30
728;DHT22;347;48.780;9.158;2023-04-06T09:17:47;11.20;8.00
728;DHT22;347;48.780;9.158;2023-04-06T09:20:13;11.30;8.50
728;DHT22;347;48.780;9.158;2023-04-06T09:22:39;11.60;7.40
728;DHT22;347;48.780;9.158;2023-04-06T09:25:06;11.70;7.50
728;DHT22;347;48.780;9.158;2023-04-06T09:27:34;11.90;7.10
728;DHT22;347;48.780;9.158;2023-04-06T09:30:04;12.00;7.30
728;DHT22;347;48.780;9.158;2023-04-06T09:32:31;12.10;7.00
728;DHT22;347;48.780;9.158;2023-04-06T09:35:15;12.20;7.40
728;DHT22;347;48.780;9.158;2023-04-06T09:37:44;12.40;7.10
728;DHT22;347;48.780;9.158;2023-04-06T09:40:11;12.70;6.80
728;DHT22;347;48.780;9.158;2023-04-06T09:42:37;12.60;6.60
728;DHT22;347;48.780;9.158;2023-04-06T09:45:03;12.60;6.10
728;DHT22;347;48.780;9.158;2023-04-06T09:47:30;12.60;5.90
728;DHT22;347;48.780;9.158;2023-04-06T09:49:58;12.70;5.60
728;DHT22;347;48.780;9.158;2023-04-06T09:52:27;12.60;5.20
728;DHT22;347;48.780;9.158;2023-04-06T09:54:59;12.60;4.60
728;DHT22;347;48.780;9.158;2023-04-06T09:58:06;12.70;4.90
728;DHT22;347;48.780;9.158;2023-04-06T10:03:25;13.20;4.30
728;DHT22;347;48.780;9.158;2023-04-06T10:05:59;13.20;4.20
728;DHT22;347;48.780;9.158;2023-04-06T10:08:27;13.20;3.30
728;DHT22;347;48.780;9.158;2023-04-06T10:10:54;13.40;3.50
728;DHT22;347;48.780;9.158;2023-04-06T10:13:20;13.50;3.20
728;DHT22;347;48.780;9.158;2023-04-06T10:15:47;13.50;3.10
728;DHT22;347;48.780;9.158;2023-04-06T10:18:14;13.40;2.60
728;DHT22;347;48.780;9.158;2023-04-06T10:25:59;13.00;2.90
728;DHT22;347;48.780;9.158;2023-04-06T10:28:26;13.20;2.20
728;DHT22;347;48.780;9.158;2023-04-06T10:31:00;13.20;2.60
728;DHT22;347;48.780;9.158;2023-04-06T10:33:26;13.30;2.60
728;DHT22;347;48.780;9.158;2023-04-06T10:35:52;13.50;3.20
728;DHT22;347;48.780;9.158;2023-04-06T10:38:19;13.60;1.80
728;DHT22;347;48.780;9.158;2023-04-06T10:40:47;13.60;1.80
728;DHT22;347;48.780;9.158;2023-04-06T10:43:23;13.60;2.80
728;DHT22;347;48.780;9.158;2023-04-06T10:46:00;13.60;2.00
728;DHT22;347;48.780;9.158;2023-04-06T10:48:40;13.60;1.30
728;DHT22;347;48.780;9.158;2023-04-06T10:51:16;13.60;1.90
728;DHT22;347;48.780;9.158;2023-04-06T10:53:44;13.70;2.70
728;DHT22;347;48.780;9.158;2023-04-06T10:56:12;13.70;1.20
728;DHT22;347;48.780;9.158;2023-04-06T10:58:38;13.70;1.00
728;DHT22;347;48.780;9.158;2023-04-06T11:01:11;13.70;1.00
728;DHT22;347;48.780;9.158;2023-04-06T11:06:09;13.70;1.50
728;DHT22;347;48.780;9.158;2023-04-06T11:08:35;13.60;1.30
728;DHT22;347;48.780;9.158;2023-04-06T11:13:42;13.50;1.00
728;DHT22;347;48.780;9.158;2023-04-06T11:16:34;13.60;1.40
728;DHT22;347;48.780;9.158;2023-04-06T11:19:01;13.60;1.60
728;DHT22;347;48.780;9.158;2023-04-06T11:21:54;13.40;1.10
728;DHT22;347;48.780;9.158;2023-04-06T11:24:24;13.40;1.00
728;DHT22;347;48.780;9.158;2023-04-06T11:29:24;13.50;1.30
728;DHT22;347;48.780;9.158;2023-04-06T11:31:52;13.60;1.00
728;DHT22;347;48.780;9.158;2023-04-06T11:34:22;13.50;1.40
728;DHT22;347;48.780;9.158;2023-04-06T11:36:53;13.60;1.00
728;DHT22;347;48.780;9.158;2023-04-06T11:39:21;13.50;1.30
728;DHT22;347;48.780;9.158;2023-04-06T11:41:50;13.70;1.70
728;DHT22;347;48.780;9.158;2023-04-06T11:44:37;13.70;1.00
728;DHT22;347;48.780;9.158;2023-04-06T11:47:10;13.70;1.00
728;DHT22;347;48.780;9.158;2023-04-06T11:49:40;13.70;1.10
728;DHT22;347;48.780;9.158;2023-04-06T11:54:44;13.60;1.00
728;DHT22;347;48.780;9.158;2023-04-06T11:57:09;13.40;1.00
728;DHT22;347;48.780;9.158;2023-04-06T11:59:35;13.50;1.00
728;DHT22;347;48.780;9.158;2023-04-06T12:02:02;13.50;1.00
728;DHT22;347;48.780;9.158;2023-04-06T12:04:28;13.60;1.00
728;DHT22;347;48.780;9.158;2023-04-06T12:06:54;13.70;1.30
728;DHT22;347;48.780;9.158;2023-04-06T12:09:20;13.80;1.00
728;DHT22;347;48.780;9.158;2023-04-06T12:11:46;13.80;1.00
728;DHT22;347;48.780;9.158;2023-04-06T12:14:12;13.90;1.00
728;DHT22;347;48.780;9.158;2023-04-06T12:16:38;13.90;1.00
728;DHT22;347;48.780;9.158;2023-04-06T12:19:03;13.90;1.00
728;DHT22;347;48.780;9.158;2023-04-06T12:21:30;13.90;1.00
728;DHT22;347;48.780;9.158;2023-04-06T12:24:00;13.90;1.00
728;DHT22;347;48.780;9.158;2023-04-06T12:26:29;14.00;1.20
728;DHT22;347;48.780;9.158;2023-04-06T12:28:55;13.90;1.00
728;DHT22;347;48.780;9.158;2023-04-06T12:31:22;14.00;1.00
728;DHT22;347;48.780;9.158;2023-04-06T12:33:51;13.80;1.00
728;DHT22;347;48.780;9.158;2023-04-06T12:36:18;13.80;1.00
728;DHT22;347;48.780;9.158;2023-04-06T12:38:45;13.80;1.00
728;DHT22;347;48.780;9.158;2023-04-06T12:41:12;13.80;1.00
728;DHT22;347;48.780;9.158;2023-04-06T12:43:39;13.80;1.00
728;DHT22;347;48.780;9.158;2023-04-06T12:46:05;13.90;1.00
728;DHT22;347;48.780;9.158;2023-04-06T12:48:31;13.90;1.00
728;DHT22;347;48.780;9.158;2023-04-06T12:50:58;13.90;1.00
728;DHT22;347;48.780;9.158;2023-04-06T12:53:24;13.90;1.00
728;DHT22;347;48.780;9.158;2023-04-06T12:55:50;13.90;1.00
728;DHT22;347;48.780;9.158;2023-04-06T12:58:15;13.80;1.00
728;DHT22;347;48.780;9.158;2023-04-06T13:00:42;13.80;1.00
728;DHT22;347;48.780;9.158;2023-04-06T13:03:08;13.80;1.00
728;DHT22;347;48.780;9.158;2023-04-06T13:05:33;13.70;1.00
728;DHT22;347;48.780;9.158;2023-04-06T13:07:59;13.60;1.00
728;DHT22;347;48.780;9.158;2023-04-06T13:10:25;13.50;1.00
728;DHT22;347;48.780;9.158;2023-04-06T13:12:51;13.60;1.00
728;DHT22;347;48.780;9.158;2023-04-06T13:15:17;13.70;1.00
728;DHT22;347;48.780;9.158;2023-04-06T13:17:43;13.80;1.00
728;DHT22;347;48.780;9.158;2023-04-06T13:20:09;13.90;1.00
728;DHT22;347;48.780;9.158;2023-04-06T13:22:35;13.90;1.00
728;DHT22;347;48.780;9.158;2023-04-06T13:25:01;13.90;1.00
728;DHT22;347;48.780;9.158;2023-04-06T13:27:26;14.00;1.00
728;DHT22;347;48.780;9.158;2023-04-06T13:29:53;14.00;1.00
728;DHT22;347;48.780;9.158;2023-04-06T13:32:19;14.00;1.00
728;DHT22;347;48.780;9.158;2023-04-06T13:34:45;14.00;1.00
728;DHT22;347;48.780;9.158;2023-04-06T13:37:13;13.90;1.00
728;DHT22;347;48.780;9.158;2023-04-06T13:39:39;14.00;1.00
728;DHT22;347;48.780;9.158;2023-04-06T13:42:05;14.00;1.00
728;DHT22;347;48.780;9.158;2023-04-06T13:44:32;14.00;1.00
728;DHT22;347;48.780;9.158;2023-04-06T13:46:58;14.00;1.00
728;DHT22;347;48.780;9.158;2023-04-06T13:49:24;13.90;1.00
728;DHT22;347;48.780;9.158;2023-04-06T13:51:49;13.80;1.00
728;DHT22;347;48.780;9.158;2023-04-06T13:54:15;13.90;1.00
728;DHT22;347;48.780;9.158;2023-04-06T13:56:41;13.80;1.00
728;DHT22;347;48.780;9.158;2023-04-06T13:59:06;13.90;1.00
728;DHT22;347;48.780;9.158;2023-04-06T14:01:32;13.90;1.00
728;DHT22;347;48.780;9.158;2023-04-06T14:03:58;13.80;1.00
728;DHT22;347;48.780;9.158;2023-04-06T14:06:23;13.80;1.00
728;DHT22;347;48.780;9.158;2023-04-06T14:08:50;14.00;1.00
728;DHT22;347;48.780;9.158;2023-04-06T14:11:15;14.00;1.00
728;DHT22;347;48.780;9.158;2023-04-06T14:13:41;14.10;1.00
728;DHT22;347;48.780;9.158;2023-04-06T14:16:07;14.00;1.00
728;DHT22;347;48.780;9.158;2023-04-06T14:18:33;14.10;1.00
728;DHT22;347;48.780;9.158;2023-04-06T14:21:00;14.10;1.00
728;DHT22;347;48.780;9.158;2023-04-06T14:23:27;14.10;1.00
728;DHT22;347;48.780;9.158;2023-04-06T14:26:04;14.20;1.00
728;DHT22;347;48.780;9.158;2023-04-06T14:28:31;14.20;1.00
728;DHT22;347;48.780;9.158;2023-04-06T14:30:59;14.20;1.00
728;DHT22;347;48.780;9.158;2023-04-06T14:33:26;14.20;1.00
728;DHT22;347;48.780;9.158;2023-04-06T14:35:51;14.20;1.00
728;DHT22;347;48.780;9.158;2023-04-06T14:38:17;14.20;1.00
728;DHT22;347;48.780;9.158;2023-04-06T14:40:42;14.20;1.00
728;DHT22;347;48.780;9.158;2023-04-06T14:43:08;14.20;1.00
728;DHT22;347;48.780;9.158;2023-04-06T14:45:34;14.20;1.00
728;DHT22;347;48.780;9.158;2023-04-06T14:48:02;14.20;1.00
728;DHT22;347;48.780;9.158;2023-04-06T14:50:27;14.20;1.00
728;DHT22;347;48.780;9.158;2023-04-06T14:52:53;14.20;1.00
728;DHT22;347;48.780;9.158;2023-04-06T14:55:19;14.10;1.00
728;DHT22;347;48.780;9.158;2023-04-06T14:57:44;14.20;1.00
728;DHT22;347;48.780;9.158;2023-04-06T15:00:11;14.20;1.00
728;DHT22;347;48.780;9.158;2023-04-06T15:02:37;14.20;1.00
728;DHT22;347;48.780;9.158;2023-04-06T15:05:03;14.20;1.00
728;DHT22;347;48.780;9.158;2023-04-06T15:07:30;14.10;1.00
728;DHT22;347;48.780;9.158;2023-04-06T15:09:56;14.10;1.00
728;DHT22;347;48.780;9.158;2023-04-06T15:12:21;14.20;1.00
728;DHT22;347;48.780;9.158;2023-04-06T15:14:47;14.10;1.00
728;DHT22;347;48.780;9.158;2023-04-06T15:17:12;14.20;1.00
728;DHT22;347;48.780;9.158;2023-04-06T15:19:38;14.20;1.00
728;DHT22;347;48.780;9.158;2023-04-06T15:22:04;14.30;1.00
728;DHT22;347;48.780;9.158;2023-04-06T15:24:29;14.30;1.00
728;DHT22;347;48.780;9.158;2023-04-06T15:26:55;14.30;1.00
728;DHT22;347;48.780;9.158;2023-04-06T15:29:22;14.10;1.00
728;DHT22;347;48.780;9.158;2023-04-06T15:31:48;14.00;1.00
728;DHT22;347;48.780;9.158;2023-04-06T15:34:13;14.00;1.00
728;DHT22;347;48.780;9.158;2023-04-06T15:36:39;14.10;1.00
728;DHT22;347;48.780;9.158;2023-04-06T15:39:06;14.10;1.00
728;DHT22;347;48.780;9.158;2023-04-06T15:41:33;14.10;1.00
728;DHT22;347;48.780;9.158;2023-04-06T15:44:00;14.10;1.00
728;DHT22;347;48.780;9.158;2023-04-06T15:46:25;14.10;1.00
728;DHT22;347;48.780;9.158;2023-04-06T15:48:55;14.20;1.00
728;DHT22;347;48.780;9.158;2023-04-06T15:51:21;14.10;1.00
728;DHT22;347;48.780;9.158;2023-04-06T15:53:46;14.10;1.00
728;DHT22;347;48.780;9.158;2023-04-06T15:56:12;14.10;1.00
728;DHT22;347;48.780;9.158;2023-04-06T15:58:39;14.10;1.00
728;DHT22;347;48.780;9.158;2023-04-06T16:01:15;14.20;1.00
728;DHT22;347;48.780;9.158;2023-04-06T16:03:41;14.10;1.00
728;DHT22;347;48.780;9.158;2023-04-06T16:06:07;14.00;1.00
728;DHT22;347;48.780;9.158;2023-04-06T16:08:33;14.00;1.00
728;DHT22;347;48.780;9.158;2023-04-06T16:10:59;14.00;1.00
728;DHT22;347;48.780;9.158;2023-04-06T16:13:24;14.00;1.00
728;DHT22;347;48.780;9.158;2023-04-06T16:15:50;14.10;1.00
728;DHT22;347;48.780;9.158;2023-04-06T16:18:16;14.10;1.00
728;DHT22;347;48.780;9.158;2023-04-06T16:20:42;14.10;1.00
728;DHT22;347;48.780;9.158;2023-04-06T16:23:08;14.10;1.00
728;DHT22;347;48.780;9.158;2023-04-06T16:25:33;14.10;1.40
728;DHT22;347;48.780;9.158;2023-04-06T16:27:59;14.00;1.10
728;DHT22;347;48.780;9.158;2023-04-06T16:30:25;14.00;1.30
728;DHT22;347;48.780;9.158;2023-04-06T16:32:54;14.00;1.70
728;DHT22;347;48.780;9.158;2023-04-06T16:35:19;13.90;1.90
728;DHT22;347;48.780;9.158;2023-04-06T16:37:46;13.90;1.60
728;DHT22;347;48.780;9.158;2023-04-06T16:40:12;13.90;1.50
728;DHT22;347;48.780;9.158;2023-04-06T16:42:41;13.90;2.00
728;DHT22;347;48.780;9.158;2023-04-06T16:45:07;13.90;1.90
728;DHT22;347;48.780;9.158;2023-04-06T16:47:33;13.90;2.10
728;DHT22;347;48.780;9.158;2023-04-06T16:49:59;13.90;2.40
728;DHT22;347;48.780;9.158;2023-04-06T16:52:25;13.90;3.00
728;DHT22;347;48.780;9.158;2023-04-06T16:54:51;13.90;3.50
728;DHT22;347;48.780;9.158;2023-04-06T16:57:16;13.90;3.10
728;DHT22;347;48.780;9.158;2023-04-06T16:59:42;14.00;8.40
728;DHT22;347;48.780;9.158;2023-04-06T17:02:08;14.00;4.60
728;DHT22;347;48.780;9.158;2023-04-06T17:04:33;13.90;4.60
728;DHT22;347;48.780;9.158;2023-04-06T17:06:59;13.90;5.30
728;DHT22;347;48.780;9.158;2023-04-06T17:09:25;13.90;6.10